createdAt,value
2023-12-21T00:01:37.905Z,2.83
2023-12-21T00:04:06.556Z,2.71
2023-12-21T00:06:34.650Z,2.66
2023-12-21T00:09:03.011Z,2.60
2023-12-21T00:11:30.980Z,2.53
2023-12-21T00:13:59.935Z,2.47
2023-12-21T00:16:29.746Z,2.41
2023-12-21T00:18:58.603Z,2.33
2023-12-21T00:21:27.109Z,2.26
2023-12-21T00:23:55.093Z,2.17
2023-12-21T00:26:23.480Z,2.09
2023-12-21T00:28:51.470Z,2.04
2023-12-21T00:31:19.927Z,2.00
2023-12-21T00:33:48.048Z,1.94
2023-12-21T00:36:19.810Z,1.90
2023-12-21T00:38:47.773Z,1.86
2023-12-21T00:41:15.974Z,1.81
2023-12-21T00:43:43.949Z,1.78
2023-12-21T00:46:12.195Z,1.74
2023-12-21T00:48:40.236Z,1.70
2023-12-21T00:51:08.571Z,1.66
2023-12-21T00:53:36.799Z,1.62
2023-12-21T00:56:08.820Z,1.60
2023-12-21T00:58:36.959Z,1.56
2023-12-21T01:01:05.624Z,1.53
2023-12-21T01:03:34.037Z,1.51
2023-12-21T01:06:02.478Z,1.48
2023-12-21T01:08:30.801Z,1.44
2023-12-21T01:10:58.829Z,1.39
2023-12-21T01:13:27.237Z,1.38
2023-12-21T01:15:55.361Z,1.41
2023-12-21T01:18:23.705Z,1.49
2023-12-21T01:20:51.822Z,1.55
2023-12-21T01:23:20.283Z,1.53
2023-12-21T01:25:48.264Z,1.54
2023-12-21T01:28:16.318Z,1.58
2023-12-21T01:30:44.715Z,1.61
2023-12-21T01:33:12.904Z,1.64
2023-12-21T01:35:41.529Z,1.70
2023-12-21T01:38:09.984Z,1.72
2023-12-21T01:40:38.176Z,1.67
2023-12-21T01:43:06.401Z,1.66
2023-12-21T01:45:34.490Z,1.62
2023-12-21T01:48:03.448Z,1.64
2023-12-21T01:50:31.618Z,1.69
2023-12-21T01:53:00.744Z,1.74
2023-12-21T01:55:29.156Z,1.80
2023-12-21T01:57:57.802Z,1.87
2023-12-21T02:00:25.772Z,1.91
2023-12-21T02:02:53.828Z,1.96
2023-12-21T02:05:21.872Z,1.99
2023-12-21T02:07:50.205Z,1.95
2023-12-21T02:10:19.936Z,1.90
2023-12-21T02:12:48.254Z,1.83
2023-12-21T02:15:16.412Z,1.76
2023-12-21T02:17:47.554Z,1.70
2023-12-21T02:20:16.529Z,1.63
2023-12-21T02:22:46.024Z,1.57
2023-12-21T02:25:15.547Z,1.53
2023-12-21T02:27:43.963Z,1.48
2023-12-21T02:30:12.288Z,1.41
2023-12-21T02:32:40.558Z,1.28
2023-12-21T02:35:09.100Z,1.21
2023-12-21T02:37:37.477Z,1.16
2023-12-21T02:40:06.263Z,1.10
2023-12-21T02:42:34.371Z,1.02
2023-12-21T02:45:02.375Z,0.96
2023-12-21T02:47:30.440Z,0.88
2023-12-21T02:49:58.710Z,0.80
2023-12-21T02:52:27.174Z,0.70
2023-12-21T02:54:55.196Z,0.59
2023-12-21T02:57:23.220Z,0.51
2023-12-21T02:59:51.942Z,0.43
2023-12-21T03:02:19.913Z,0.36
2023-12-21T03:04:47.975Z,0.28
2023-12-21T03:07:16.176Z,0.24
2023-12-21T03:09:44.244Z,0.19
2023-12-21T03:12:12.392Z,0.12
2023-12-21T03:14:40.616Z,0.08
2023-12-21T03:17:09.079Z,0.06
2023-12-21T03:19:37.396Z,0.06
2023-12-21T03:22:05.643Z,0.05
2023-12-21T03:24:33.983Z,0.04
2023-12-21T03:27:02.134Z,0.04
2023-12-21T03:29:30.097Z,0.04
2023-12-21T03:31:59.245Z,0.02
2023-12-21T03:34:27.466Z,-0.02
2023-12-21T03:36:55.845Z,-0.04
2023-12-21T03:39:24.143Z,-0.06
2023-12-21T03:41:52.144Z,-0.08
2023-12-21T03:44:21.635Z,-0.10
2023-12-21T03:46:49.905Z,-0.13
2023-12-21T03:49:18.272Z,-0.16
2023-12-21T03:51:46.333Z,-0.19
2023-12-21T03:54:14.363Z,-0.22
2023-12-21T03:56:42.343Z,-0.23
2023-12-21T03:59:12.293Z,-0.24
2023-12-21T04:01:40.327Z,-0.25
2023-12-21T04:04:08.557Z,-0.25
2023-12-21T04:06:36.954Z,-0.25
2023-12-21T04:09:04.907Z,-0.26
2023-12-21T04:11:33.088Z,-0.27
2023-12-21T04:14:01.188Z,-0.27
2023-12-21T04:16:29.974Z,-0.27
2023-12-21T04:18:59.060Z,-0.28
2023-12-21T04:21:27.327Z,-0.28
2023-12-21T04:23:55.897Z,-0.28
2023-12-21T04:26:24.895Z,-0.28
2023-12-21T04:28:53.363Z,-0.28
2023-12-21T04:31:22.222Z,-0.26
2023-12-21T04:33:52.059Z,-0.25
2023-12-21T04:36:24.535Z,-0.23
2023-12-21T04:38:57.128Z,-0.23
2023-12-21T04:41:25.847Z,-0.22
2023-12-21T04:43:54.044Z,-0.21
2023-12-21T04:46:22.027Z,-0.22
2023-12-21T04:48:50.392Z,-0.22
2023-12-21T04:51:18.849Z,-0.21
2023-12-21T04:53:47.136Z,-0.21
2023-12-21T04:56:15.226Z,-0.21
2023-12-21T04:58:43.966Z,-0.19
2023-12-21T05:01:12.366Z,-0.19
2023-12-21T05:03:40.495Z,-0.19
2023-12-21T05:06:08.936Z,-0.18
2023-12-21T05:08:37.341Z,-0.17
2023-12-21T05:11:06.081Z,-0.17
2023-12-21T05:13:34.169Z,-0.17
2023-12-21T05:16:02.515Z,-0.17
2023-12-21T05:18:30.753Z,-0.17
2023-12-21T05:20:59.017Z,-0.15
2023-12-21T05:23:27.053Z,-0.14
2023-12-21T05:25:55.345Z,-0.13
2023-12-21T05:28:23.435Z,-0.10
2023-12-21T05:30:52.766Z,-0.10
2023-12-21T05:33:21.702Z,-0.09
2023-12-21T05:35:49.969Z,-0.06
2023-12-21T05:38:17.980Z,-0.01
2023-12-21T05:40:46.555Z,0.03
2023-12-21T05:43:14.739Z,0.06
2023-12-21T05:45:42.880Z,0.11
2023-12-21T05:48:11.004Z,0.17
2023-12-21T05:50:39.044Z,0.23
2023-12-21T05:53:08.415Z,0.27
2023-12-21T05:55:36.507Z,0.35
2023-12-21T05:58:04.845Z,0.44
2023-12-21T06:00:33.003Z,0.52
2023-12-21T06:03:01.218Z,0.58
2023-12-21T06:05:30.193Z,0.65
2023-12-21T06:07:58.453Z,0.71
2023-12-21T06:10:26.736Z,0.75
2023-12-21T06:12:54.752Z,0.79
2023-12-21T06:15:22.976Z,0.84
2023-12-21T06:17:51.372Z,0.91
2023-12-21T06:20:19.472Z,0.98
2023-12-21T06:22:48.399Z,1.02
2023-12-21T06:25:17.250Z,1.05
2023-12-21T06:27:45.298Z,1.08
2023-12-21T06:30:13.653Z,1.08
2023-12-21T06:32:42.123Z,1.09
2023-12-21T06:35:10.447Z,1.13
2023-12-21T06:37:38.590Z,1.18
2023-12-21T06:40:07.205Z,1.20
2023-12-21T06:42:35.946Z,1.19
2023-12-21T06:45:04.599Z,1.25
2023-12-21T06:47:32.736Z,1.34
2023-12-21T06:50:01.121Z,1.45
2023-12-21T06:52:29.546Z,1.52
2023-12-21T06:54:58.772Z,1.58
2023-12-21T06:57:26.972Z,1.65
2023-12-21T06:59:54.955Z,1.71
2023-12-21T07:02:22.913Z,1.77
2023-12-21T07:04:50.854Z,1.83
2023-12-21T07:07:19.114Z,1.91
2023-12-21T07:09:47.204Z,1.96
2023-12-21T07:12:15.466Z,2.01
2023-12-21T07:14:43.455Z,2.07
2023-12-21T07:17:11.491Z,2.11
2023-12-21T07:19:39.621Z,2.20
2023-12-21T07:22:08.332Z,2.30
2023-12-21T07:24:37.356Z,2.37
2023-12-21T07:27:05.508Z,2.46
2023-12-21T07:29:33.726Z,2.53
2023-12-21T07:32:01.783Z,2.57
2023-12-21T07:34:30.126Z,2.59
2023-12-21T07:36:58.634Z,2.59
2023-12-21T07:39:27.179Z,2.59
2023-12-21T07:41:55.749Z,2.59
2023-12-21T07:44:23.714Z,2.61
2023-12-21T07:46:51.723Z,2.66
2023-12-21T07:49:20.207Z,2.70
2023-12-21T07:51:48.386Z,2.74
2023-12-21T07:54:16.521Z,2.79
2023-12-21T07:56:44.601Z,2.84
2023-12-21T07:59:12.630Z,2.87
2023-12-21T08:01:40.697Z,2.88
2023-12-21T08:04:10.128Z,2.89
2023-12-21T08:06:38.367Z,2.90
2023-12-21T08:09:06.360Z,2.91
2023-12-21T08:11:34.456Z,2.91
2023-12-21T08:14:03.872Z,2.93
2023-12-21T08:16:32.050Z,2.95
2023-12-21T08:19:00.463Z,2.97
2023-12-21T08:21:28.778Z,3.00
2023-12-21T08:23:57.010Z,3.03
2023-12-21T08:26:25.665Z,3.04
2023-12-21T08:28:54.119Z,3.05
2023-12-21T08:31:29.345Z,3.06
2023-12-21T08:33:57.808Z,3.06
2023-12-21T08:36:26.122Z,3.07
2023-12-21T08:38:54.331Z,3.09
2023-12-21T08:41:26.081Z,3.13
2023-12-21T08:43:56.311Z,3.17
2023-12-21T08:46:25.038Z,3.21
2023-12-21T08:48:53.311Z,3.26
2023-12-21T08:51:21.254Z,3.33
2023-12-21T08:53:49.271Z,3.40
2023-12-21T08:56:17.572Z,3.51
2023-12-21T08:58:45.751Z,3.61
2023-12-21T09:01:15.480Z,3.72
2023-12-21T09:03:45.117Z,3.84
2023-12-21T09:06:13.505Z,3.96
2023-12-21T09:08:41.635Z,4.16
2023-12-21T09:11:09.607Z,4.43
2023-12-21T09:13:37.684Z,4.70
2023-12-21T09:16:06.098Z,4.95
2023-12-21T09:18:34.473Z,5.17
2023-12-21T09:21:04.925Z,5.51
2023-12-21T09:23:32.946Z,6.05
2023-12-21T09:26:01.261Z,6.63
2023-12-21T09:28:29.220Z,7.22
2023-12-21T09:30:58.284Z,7.75
2023-12-21T09:33:26.675Z,7.82
2023-12-21T09:35:59.314Z,7.67
2023-12-21T09:38:27.627Z,7.53
2023-12-21T09:40:58.604Z,7.43
2023-12-21T09:43:29.074Z,7.32
2023-12-21T09:45:58.752Z,7.14
2023-12-21T09:48:27.852Z,7.03
2023-12-21T09:50:56.712Z,7.05
2023-12-21T09:53:26.649Z,7.17
2023-12-21T09:55:55.092Z,7.39
2023-12-21T09:58:23.634Z,8.05
2023-12-21T10:00:52.156Z,9.26
2023-12-21T10:03:20.462Z,9.58
2023-12-21T10:05:49.941Z,9.75
2023-12-21T10:08:19.631Z,9.91
2023-12-21T10:10:48.359Z,9.76
2023-12-21T10:13:17.669Z,9.79
2023-12-21T10:15:48.270Z,10.10
2023-12-21T10:18:16.787Z,10.65
2023-12-21T10:20:45.712Z,11.22
2023-12-21T10:23:13.954Z,11.58
2023-12-21T10:25:45.765Z,11.35
2023-12-21T10:28:14.476Z,11.04
2023-12-21T10:30:42.784Z,10.68
2023-12-21T10:33:13.718Z,10.48
2023-12-21T10:35:42.195Z,10.44
2023-12-21T10:38:11.387Z,10.29
2023-12-21T10:40:39.824Z,10.19
2023-12-21T10:43:08.445Z,10.21
2023-12-21T10:45:37.267Z,10.52
2023-12-21T10:48:10.246Z,10.88
2023-12-21T10:50:39.452Z,11.33
2023-12-21T10:53:11.249Z,11.19
2023-12-21T10:55:41.306Z,10.99
2023-12-21T10:58:10.005Z,10.82
2023-12-21T11:00:38.379Z,10.66
2023-12-21T11:03:08.482Z,10.57
2023-12-21T11:05:37.995Z,10.72
2023-12-21T11:08:07.803Z,10.96
2023-12-21T11:10:35.962Z,11.10
2023-12-21T11:13:04.729Z,11.14
2023-12-21T11:15:34.255Z,11.11
2023-12-21T11:18:05.851Z,11.23
2023-12-21T11:20:45.373Z,11.39
2023-12-21T11:23:16.493Z,11.60
2023-12-21T11:25:44.924Z,11.66
2023-12-21T11:28:13.014Z,11.64
2023-12-21T11:30:41.112Z,11.65
2023-12-21T11:33:10.692Z,11.66
2023-12-21T11:35:38.978Z,11.63
2023-12-21T11:38:07.930Z,11.66
2023-12-21T11:40:38.640Z,11.72
2023-12-21T11:43:08.888Z,11.70
2023-12-21T11:45:40.376Z,11.52
2023-12-21T11:48:12.642Z,11.45
2023-12-21T11:50:41.625Z,11.36
2023-12-21T11:53:14.486Z,11.20
2023-12-21T11:55:45.427Z,10.99
2023-12-21T11:58:20.066Z,10.75
2023-12-21T12:00:52.940Z,10.55
2023-12-21T12:03:22.091Z,10.33
2023-12-21T12:05:54.866Z,10.17
2023-12-21T12:08:27.140Z,10.00
2023-12-21T12:10:56.333Z,9.82
2023-12-21T12:13:24.821Z,9.66
2023-12-21T12:15:53.931Z,9.54
2023-12-21T12:18:23.055Z,9.40
2023-12-21T12:20:52.822Z,9.29
2023-12-21T12:23:21.153Z,9.21
2023-12-21T12:25:50.538Z,9.12
2023-12-21T12:28:19.786Z,9.06
2023-12-21T12:30:49.742Z,8.98
2023-12-21T12:33:18.499Z,8.85
2023-12-21T12:35:49.565Z,8.73
2023-12-21T12:38:18.182Z,8.62
2023-12-21T12:40:50.046Z,8.53
2023-12-21T12:43:18.406Z,8.46
2023-12-21T12:45:46.502Z,8.35
2023-12-21T12:48:18.161Z,8.34
2023-12-21T12:50:47.404Z,8.29
2023-12-21T12:53:18.459Z,8.25
2023-12-21T12:55:48.237Z,8.22
2023-12-21T12:58:16.276Z,8.19
2023-12-21T13:00:44.427Z,8.13
2023-12-21T13:03:13.270Z,8.07
2023-12-21T13:05:41.480Z,8.01
2023-12-21T13:08:09.937Z,7.95
2023-12-21T13:10:38.288Z,7.88
2023-12-21T13:13:07.553Z,7.80
2023-12-21T13:15:35.812Z,7.73
2023-12-21T13:18:04.619Z,7.65
2023-12-21T13:20:32.927Z,7.57
2023-12-21T13:23:01.153Z,7.50
2023-12-21T13:25:29.371Z,7.43
2023-12-21T13:28:11.106Z,7.37
2023-12-21T13:30:43.614Z,7.32
2023-12-21T13:33:13.344Z,7.27
2023-12-21T13:35:42.103Z,7.22
2023-12-21T13:38:10.586Z,7.17
2023-12-21T13:40:38.897Z,7.12
2023-12-21T13:43:07.213Z,7.08
2023-12-21T13:45:36.615Z,7.01
2023-12-21T13:48:06.589Z,6.95
2023-12-21T13:50:35.923Z,6.90
2023-12-21T13:53:04.540Z,6.85
2023-12-21T13:55:32.721Z,6.80
2023-12-21T13:58:01.043Z,6.75
2023-12-21T14:00:30.283Z,6.69
2023-12-21T14:03:00.008Z,6.64
2023-12-21T14:05:29.665Z,6.57
2023-12-21T14:07:58.389Z,6.51
2023-12-21T14:10:26.871Z,6.45
2023-12-21T14:12:58.672Z,6.37
2023-12-21T14:15:30.352Z,6.29
2023-12-21T14:17:58.514Z,6.22
2023-12-21T14:20:26.940Z,6.13
2023-12-21T14:22:55.321Z,6.01
2023-12-21T14:25:23.988Z,5.90
2023-12-21T14:27:52.774Z,5.79
2023-12-21T14:30:21.742Z,5.68
2023-12-21T14:32:49.994Z,5.57
2023-12-21T14:35:18.402Z,5.46
2023-12-21T14:37:47.297Z,5.34
2023-12-21T14:40:16.161Z,5.21
2023-12-21T14:42:44.511Z,5.11
2023-12-21T14:45:12.587Z,5.00
2023-12-21T14:47:40.885Z,4.91
2023-12-21T14:50:09.678Z,4.81
2023-12-21T14:52:38.738Z,4.73
2023-12-21T14:55:07.425Z,4.63
2023-12-21T14:57:35.548Z,4.53
2023-12-21T15:00:04.190Z,4.42
2023-12-21T15:02:32.297Z,4.30
2023-12-21T15:05:00.713Z,4.18
2023-12-21T15:07:29.082Z,4.05
2023-12-21T15:10:02.611Z,3.93
2023-12-21T15:12:30.827Z,3.80
2023-12-21T15:14:59.144Z,3.70
2023-12-21T15:17:27.273Z,3.60
2023-12-21T15:19:56.021Z,3.51
2023-12-21T15:22:24.147Z,3.42
2023-12-21T15:24:52.471Z,3.34
2023-12-21T15:27:20.637Z,3.26
2023-12-21T15:29:48.937Z,3.15
2023-12-21T15:32:17.808Z,3.02
2023-12-21T15:34:45.856Z,2.94
2023-12-21T15:37:14.009Z,2.87
2023-12-21T15:39:45.330Z,2.80
2023-12-21T15:42:13.646Z,2.74
2023-12-21T15:44:41.732Z,2.65
2023-12-21T15:47:09.732Z,2.58
2023-12-21T15:49:38.023Z,2.53
2023-12-21T15:52:08.497Z,2.47
2023-12-21T15:54:36.739Z,2.40
2023-12-21T15:57:05.127Z,2.35
2023-12-21T15:59:36.367Z,2.32
2023-12-21T16:02:05.331Z,2.29
2023-12-21T16:04:36.561Z,2.25
2023-12-21T16:07:05.209Z,2.21
2023-12-21T16:09:33.581Z,2.16
2023-12-21T16:12:01.662Z,2.11
2023-12-21T16:14:30.062Z,2.07
2023-12-21T16:16:58.157Z,2.04
2023-12-21T16:19:26.452Z,2.02
2023-12-21T16:21:55.046Z,1.98
2023-12-21T16:24:26.673Z,1.93
2023-12-21T16:26:58.718Z,1.84
2023-12-21T16:29:26.726Z,1.75
2023-12-21T16:31:54.753Z,1.66
2023-12-21T16:34:23.063Z,1.59
2023-12-21T16:36:51.388Z,1.53
2023-12-21T16:39:19.634Z,1.39
2023-12-21T16:41:47.868Z,1.35
2023-12-21T16:44:15.857Z,1.29
2023-12-21T16:46:44.084Z,1.22
2023-12-21T16:49:12.338Z,1.12
2023-12-21T16:51:40.663Z,1.07
2023-12-21T16:54:09.026Z,1.04
2023-12-21T16:56:37.835Z,1.03
2023-12-21T16:59:05.933Z,1.02
2023-12-21T17:01:34.069Z,1.02
2023-12-21T17:04:03.060Z,1.05
2023-12-21T17:06:31.452Z,1.16
2023-12-21T17:09:00.353Z,1.31
2023-12-21T17:11:28.504Z,1.51
2023-12-21T17:13:56.821Z,1.75
2023-12-21T17:16:25.767Z,2.01
2023-12-21T17:18:54.839Z,2.23
2023-12-21T17:21:23.028Z,2.42
2023-12-21T17:23:51.727Z,2.60
2023-12-21T17:26:19.733Z,2.75
2023-12-21T17:28:48.465Z,2.88
2023-12-21T17:31:16.813Z,3.00
2023-12-21T17:33:46.149Z,3.08
2023-12-21T17:36:14.770Z,3.16
2023-12-21T17:38:42.738Z,3.22
2023-12-21T17:41:10.743Z,3.28
2023-12-21T17:43:39.165Z,3.33
2023-12-21T17:46:07.346Z,3.37
2023-12-21T17:48:35.871Z,3.43
2023-12-21T17:51:04.181Z,3.48
2023-12-21T17:53:32.214Z,3.50
2023-12-21T17:56:00.716Z,3.50
2023-12-21T17:58:28.781Z,3.52
2023-12-21T18:00:56.961Z,3.52
2023-12-21T18:03:24.987Z,3.53
2023-12-21T18:05:55.353Z,3.55
2023-12-21T18:08:23.709Z,3.54
2023-12-21T18:10:51.758Z,3.52
2023-12-21T18:13:19.863Z,3.51
2023-12-21T18:15:48.850Z,3.48
2023-12-21T18:18:18.354Z,3.46
2023-12-21T18:20:46.966Z,3.43
2023-12-21T18:23:17.035Z,3.40
2023-12-21T18:25:45.284Z,3.37
2023-12-21T18:28:13.692Z,3.35
2023-12-21T18:30:41.816Z,3.31
2023-12-21T18:33:10.115Z,3.23
2023-12-21T18:35:39.557Z,3.20
2023-12-21T18:38:07.615Z,3.18
2023-12-21T18:40:35.632Z,3.16
2023-12-21T18:43:04.211Z,3.14
2023-12-21T18:45:32.403Z,3.13
2023-12-21T18:48:04.105Z,3.13
2023-12-21T18:50:32.694Z,3.14
2023-12-21T18:53:01.009Z,3.13
2023-12-21T18:55:29.099Z,3.13
2023-12-21T18:57:57.364Z,3.15
2023-12-21T19:00:25.606Z,3.18
2023-12-21T19:02:53.843Z,3.19
2023-12-21T19:05:22.813Z,3.23
2023-12-21T19:07:51.277Z,3.20
2023-12-21T19:10:19.717Z,3.12
2023-12-21T19:12:48.205Z,3.09
2023-12-21T19:15:16.711Z,3.09
2023-12-21T19:17:44.921Z,3.11
2023-12-21T19:20:13.762Z,3.11
2023-12-21T19:22:42.230Z,3.16
2023-12-21T19:25:12.649Z,3.21
2023-12-21T19:27:41.628Z,3.24
2023-12-21T19:30:14.180Z,3.26
2023-12-21T19:32:42.529Z,3.27
2023-12-21T19:35:10.566Z,3.26
2023-12-21T19:37:39.193Z,3.26
2023-12-21T19:40:07.518Z,3.26
2023-12-21T19:42:35.906Z,3.25
2023-12-21T19:45:05.363Z,3.22
2023-12-21T19:47:33.538Z,3.21
2023-12-21T19:50:04.304Z,3.20
2023-12-21T19:52:32.723Z,3.19
2023-12-21T19:55:00.893Z,3.16
2023-12-21T19:57:28.963Z,3.08
2023-12-21T19:59:57.099Z,2.97
2023-12-21T20:02:25.445Z,2.81
2023-12-21T20:04:53.694Z,2.63
2023-12-21T20:07:22.132Z,2.49
2023-12-21T20:09:50.518Z,2.36
2023-12-21T20:12:21.247Z,2.27
2023-12-21T20:14:50.704Z,2.19
2023-12-21T20:17:18.883Z,2.14
2023-12-21T20:19:46.957Z,2.06
2023-12-21T20:22:15.020Z,1.98
2023-12-21T20:24:43.253Z,1.91
2023-12-21T20:27:11.566Z,1.85
2023-12-21T20:29:40.424Z,1.79
2023-12-21T20:32:08.714Z,1.73
2023-12-21T20:34:36.981Z,1.68
2023-12-21T20:37:05.460Z,1.63
2023-12-21T20:39:36.756Z,1.61
2023-12-21T20:42:05.192Z,1.57
2023-12-21T20:44:33.181Z,1.55
2023-12-21T20:47:02.048Z,1.52
2023-12-21T20:49:30.434Z,1.50
2023-12-21T20:51:58.930Z,1.49
2023-12-21T20:54:27.337Z,1.47
2023-12-21T20:56:55.338Z,1.46
2023-12-21T20:59:23.748Z,1.42
2023-12-21T21:01:51.754Z,1.39
2023-12-21T21:04:19.817Z,1.36
2023-12-21T21:06:48.515Z,1.32
2023-12-21T21:09:17.104Z,1.29
2023-12-21T21:11:45.488Z,1.23
2023-12-21T21:14:13.462Z,1.19
2023-12-21T21:16:41.564Z,1.17
2023-12-21T21:19:09.812Z,1.14
2023-12-21T21:21:38.223Z,1.12
2023-12-21T21:24:06.983Z,1.10
2023-12-21T21:26:34.960Z,1.08
2023-12-21T21:29:03.452Z,1.07
2023-12-21T21:31:31.669Z,1.04
2023-12-21T21:33:59.803Z,0.98
2023-12-21T21:36:28.770Z,0.89
2023-12-21T21:38:57.513Z,0.85
2023-12-21T21:41:25.534Z,0.86
2023-12-21T21:43:53.837Z,0.84
2023-12-21T21:46:22.138Z,0.83
2023-12-21T21:48:50.298Z,0.85
2023-12-21T21:51:18.634Z,0.85
2023-12-21T21:53:47.047Z,0.85
2023-12-21T21:56:19.789Z,0.85
2023-12-21T21:58:48.229Z,0.86
2023-12-21T22:01:16.651Z,0.89
2023-12-21T22:03:44.858Z,0.94
2023-12-21T22:06:13.108Z,0.97
2023-12-21T22:08:41.393Z,1.01
2023-12-21T22:11:10.208Z,1.04
2023-12-21T22:13:38.320Z,1.07
2023-12-21T22:16:07.795Z,1.08
2023-12-21T22:18:35.814Z,1.03
2023-12-21T22:21:04.211Z,1.02
2023-12-21T22:23:32.474Z,1.01
2023-12-21T22:26:01.169Z,1.02
2023-12-21T22:28:29.837Z,0.96
2023-12-21T22:30:58.070Z,0.91
2023-12-21T22:33:26.410Z,0.89
2023-12-21T22:35:54.823Z,0.83
2023-12-21T22:38:22.957Z,0.82
2023-12-21T22:40:51.200Z,0.84
2023-12-21T22:43:29.943Z,0.87
2023-12-21T22:46:07.286Z,0.87
2023-12-21T22:48:35.794Z,0.86
2023-12-21T22:51:04.108Z,0.84
2023-12-21T22:53:32.932Z,0.79
2023-12-21T22:56:01.167Z,0.80
2023-12-21T22:58:29.426Z,0.85
2023-12-21T23:00:57.721Z,0.95
2023-12-21T23:03:25.850Z,1.02
2023-12-21T23:05:54.332Z,1.05
2023-12-21T23:08:22.466Z,1.05
2023-12-21T23:10:52.180Z,1.06
2023-12-21T23:13:20.522Z,1.08
2023-12-21T23:15:48.663Z,1.10
2023-12-21T23:18:16.865Z,1.10
2023-12-21T23:20:44.863Z,1.09
2023-12-21T23:23:13.111Z,1.08
2023-12-21T23:25:41.351Z,1.07
2023-12-21T23:28:09.435Z,1.05
2023-12-21T23:30:37.702Z,1.05
2023-12-21T23:33:06.489Z,1.07
2023-12-21T23:35:34.866Z,1.07
2023-12-21T23:38:03.385Z,1.08
2023-12-21T23:40:31.446Z,1.10
2023-12-21T23:42:59.645Z,1.13
2023-12-21T23:45:28.238Z,1.16
2023-12-21T23:47:56.634Z,1.18
2023-12-21T23:50:24.759Z,1.18
2023-12-21T23:52:53.003Z,1.17
2023-12-21T23:55:21.204Z,1.12
2023-12-21T23:57:49.467Z,1.07
